BE486 / G-PRPJ 7700 Squawk Report (14th of January, 2019)

Aircraft DH8D Reg No. G-PRPJ Age N/A
Model DHC-8 Turboprop engines 2 First flight N/A
Registered 01-08-16 Rollout N/A Delivered 30-04-08
Construction No. 4202 Line No. N/A Series Q-402
ADSHEX 407169 Airline name FlyBE Owner N/A
Airfield based Exeter~Devon~G First tracked 2017-07-13 08:39:00

Flight history for G-PRPJ

Route Flight No Date Playback
Edinburgh (EDI) - Birmingham (BHX) BE841 2019-10-18 06:51:00
East Midlands Airport (EMA) - Edinburgh (EDI) BE268 2019-10-17 21:20:00
Edinburgh (EDI) - East Midlands Airport (EMA) BE267 2019-10-17 19:52:00
City (LCY) - Edinburgh (EDI) BE1342 2019-10-17 17:57:00
Edinburgh (EDI) - City (LCY) BE1341 2019-10-17 17:02:00
Birmingham (BHX) - Edinburgh (EDI) BE840 2019-10-17 12:47:00
Edinburgh (EDI) - Southampton (SOU) BE765 2019-10-17 11:53:00
Birmingham (BHX) - Edinburgh (EDI) BE842 2019-10-17 08:35:00
Glasgow (GLA) - Birmingham (BHX) BE795 2019-10-16 21:03:00
Birmingham (BHX) - Glasgow (GLA) BE792 2019-10-16 19:18:00
Glasgow (GLA) - Birmingham (BHX) BE791 2019-10-16 17:45:00
Birmingham (BHX) - Glasgow (GLA) BE788 2019-10-16 15:20:00
Isle Of Man (IOM) - Birmingham (BHX) BE193 2019-10-16 12:08:00
Birmingham (BHX) - Isle Of Man (IOM) BE194 2019-10-16 10:42:00
Birmingham (BHX) - Guernsey (GCI) - Jersey (JER) - Birmingham (BHX) BE500 2019-10-16 09:01:00
Schiphol (AMS) - Birmingham (BHX) BE114 2019-10-15 20:30:00
Birmingham (BHX) - Schiphol (AMS) BE113 2019-10-15 18:30:00
Belfast City (BHD) - Birmingham (BHX) BE411 2019-10-15 16:34:00
Birmingham (BHX) - Belfast City (BHD) BE408 2019-10-15 15:04:00
Guernsey (GCI) - Jersey (JER) - Birmingham (BHX) BE511 2019-10-14 19:54:00
Time Lat Lon Altitude Heading Speed Vertical Rate
2019-01-14 21:09:02 GMT 54.663219 -5.451216 4,000 308 170 -640
2019-01-14 21:08:56 GMT 54.660103 -5.441728 4,150 308 170 -640
2019-01-14 21:08:44 GMT 54.655121 -5.430492 4,175 320 193 -640
2019-01-14 21:08:30 GMT 54.647999 -5.414429 4,300 320 193 -640
2019-01-14 21:08:24 GMT 54.645809 -5.408936 4,425 320 193 -640
2019-01-14 21:08:13 GMT 54.640411 -5.394287 4,500 320 193 -640
2019-01-14 21:08:00 GMT 54.634590 -5.380721 4,575 320 193 -640
2019-01-14 21:07:48 GMT 54.629704 -5.366572 4,675 320 193 -640
2019-01-14 21:07:43 GMT 54.620811 -5.349260 4,775 320 193 -640
2019-01-14 21:07:29 GMT 54.618019 -5.344432 4,900 320 193 -640
2019-01-14 21:07:23 GMT 54.618019 -5.344432 5,000 320 193 -640
2019-01-14 21:07:08 GMT 54.607822 -5.328619 5,075 320 193 -640
2019-01-14 21:07:00 GMT 54.603401 -5.322876 5,200 320 193 -640
2019-01-14 21:06:52 GMT 54.598419 -5.314969 5,350 320 193 -640
2019-01-14 21:06:37 GMT 54.587109 -5.299322 5,400 320 202 -640
2019-01-14 21:06:29 GMT 54.583012 -5.293080 5,500 320 202 -640
2019-01-14 21:06:19 GMT 54.576305 -5.282759 5,600 320 202 -640
2019-01-14 21:06:10 GMT 54.569511 -5.272439 5,725 320 202 -640
2019-01-14 21:05:57 GMT 54.561924 -5.261203 5,825 320 202 -640
2019-01-14 21:05:50 GMT 54.556381 -5.252297 5,925 320 202 -640
2019-01-14 21:05:36 GMT 54.546608 -5.237982 6,025 320 202 -640
2019-01-14 21:05:30 GMT 54.543118 -5.233404 6,125 320 202 -640
2019-01-14 21:05:17 GMT 54.531990 -5.217507 6,225 320 202 -640
2019-01-14 21:05:08 GMT 54.517696 -5.196783 6,350 319 204 -576
2019-01-14 21:04:54 GMT 54.517696 -5.196783 6,450 319 204 -576
2019-01-14 21:04:46 GMT 54.511505 -5.187211 6,525 319 204 -640
2019-01-14 21:04:35 GMT 54.504292 -5.176641 6,650 319 204 -640
2019-01-14 21:04:23 GMT 54.495213 -5.162659 6,750 319 204 -576
2019-01-14 21:04:15 GMT 54.488880 -5.153004 6,875 319 204 -576
2019-01-14 21:04:00 GMT 54.479107 -5.137773 6,975 319 204 -576
2019-01-14 21:03:53 GMT 54.469982 -5.123707 7,075 320 207 -576
2019-01-14 21:03:46 GMT 54.469982 -5.123707 7,175 320 207 -576
2019-01-14 21:03:37 GMT 54.462021 -5.112305 7,300 320 207 -576
2019-01-14 21:03:23 GMT 54.452198 -5.097989 7,350 320 207 -576
2019-01-14 21:03:18 GMT 54.440701 -5.082092 7,475 321 196 -576
2019-01-14 21:03:06 GMT 54.440701 -5.082092 7,575 321 196 -576
2019-01-14 21:02:56 GMT 54.432091 -5.069025 7,700 321 196 -576
2019-01-14 21:02:42 GMT 54.422405 -5.053961 7,775 321 196 -576
2019-01-14 21:02:36 GMT 54.419613 -5.049966 7,875 321 196 -576
2019-01-14 21:02:23 GMT 54.404297 -5.026828 8,000 321 196 -576
2019-01-14 21:02:16 GMT 54.397919 -5.018005 8,125 320 195 -576
2019-01-14 21:02:05 GMT 54.397919 -5.018005 8,175 320 195 -576
2019-01-14 21:01:51 GMT 54.379391 -4.992787 8,375 319 199 -576
2019-01-14 21:01:39 GMT 54.379391 -4.992787 8,375 319 199 -576
2019-01-14 21:01:32 GMT 54.374084 -4.986711 8,450 317 200 -576
2019-01-14 21:01:20 GMT 54.365704 -4.974809 8,625 315 202 -576
2019-01-14 21:01:14 GMT 54.361702 -4.968068 8,700 315 202 -576
2019-01-14 21:01:02 GMT 54.353882 -4.954584 8,800 315 205 -576
2019-01-14 21:00:50 GMT 54.345222 -4.939936 8,900 315 205 -576
2019-01-14 21:00:42 GMT 54.340382 -4.931779 9,000 315 205 -576
2019-01-14 21:00:28 GMT 54.330605 -4.915300 9,100 315 205 -576
2019-01-14 21:00:19 GMT 54.324692 -4.905072 9,200 315 206 -576
2019-01-14 21:00:08 GMT 54.316685 -4.891413 9,325 315 207 -640
2019-01-14 21:00:01 GMT 54.312496 -4.883922 9,425 316 204 -576
2019-01-14 20:59:50 GMT 54.305279 -4.871771 9,500 315 202 -576
2019-01-14 20:59:39 GMT 54.297089 -4.857788 9,600 315 202 -576
2019-01-14 20:59:26 GMT 54.289497 -4.845137 9,725 315 202 -576
2019-01-14 20:59:18 GMT 54.283306 -4.834817 9,825 315 202 -576
2019-01-14 20:59:12 GMT 54.280094 -4.828824 9,900 315 202 -576
2019-01-14 20:59:00 GMT 54.267899 -4.807730 10,050 315 202 -576
2019-01-14 20:58:55 GMT 54.267899 -4.807730 10,100 315 202 -576
2019-01-14 20:58:50 GMT 54.260403 -4.794724 10,125 315 202 -576
2019-01-14 20:58:44 GMT 54.260403 -4.794724 10,200 315 202 -576
2019-01-14 20:58:37 GMT 54.255890 -4.786727 10,225 315 202 -576
2019-01-14 20:58:32 GMT 54.252491 -4.781315 10,300 315 202 -576
2019-01-14 20:58:25 GMT 54.247185 -4.772267 10,300 315 202 -576
2019-01-14 20:58:20 GMT 54.245182 -4.768874 10,425 315 208 -1020
2019-01-14 20:58:11 GMT 54.238712 -4.757484 10,500 315 208 -1020
2019-01-14 20:58:06 GMT 54.230190 -4.742701 10,525 315 208 -1020
2019-01-14 20:57:58 GMT 54.224884 -4.733815 10,625 315 208 -1020
2019-01-14 20:57:50 GMT 54.219482 -4.724767 10,750 315 208 -1020
2019-01-14 20:57:42 GMT 54.219482 -4.724767 10,800 315 208 -1020
2019-01-14 20:57:35 GMT 54.215015 -4.717174 10,825 315 208 -1020
2019-01-14 20:57:30 GMT 54.211014 -4.710469 10,950 315 208 -1020
2019-01-14 20:57:17 GMT 54.203007 -4.696978 11,075 315 208 -1020
2019-01-14 20:57:11 GMT 54.199001 -4.690274 11,150 315 208 -1020
2019-01-14 20:56:06 GMT 54.159416 -4.623464 11,875 315 206 -600
2019-01-14 20:55:43 GMT 54.143623 -4.597285 12,150 314 212 -420
2019-01-14 20:55:32 GMT 54.136009 -4.584125 12,300 317 209 -900
2019-01-14 20:55:20 GMT 54.127396 -4.570856 12,450 314 216 -540
2019-01-14 20:55:08 GMT 54.118912 -4.556347 12,575 315 220 -1140
2019-01-14 20:54:57 GMT 54.110962 -4.542852 12,700 316 211 -600
2019-01-14 20:54:45 GMT 54.102375 -4.529136 12,850 313 206 -480
2019-01-14 20:54:35 GMT 54.095818 -4.517277 12,950 317 215 -480
2019-01-14 20:54:24 GMT 54.088024 -4.504498 13,125 314 218 -480
2019-01-14 20:54:13 GMT 54.080475 -4.491430 13,225 314 206 -600
2019-01-14 20:54:01 GMT 54.072395 -4.477568 13,350 316 216 -1140
2019-01-14 20:53:51 GMT 54.065441 -4.465789 13,475 319 208 -480
2019-01-14 20:53:36 GMT 54.054554 -4.447963 13,625 316 209 -660
2019-01-14 20:53:24 GMT 54.046494 -4.434956 13,800 316 213 -600
2019-01-14 20:53:06 GMT 54.033619 -4.414322 13,975 315 206 -420
2019-01-14 20:52:56 GMT 54.027237 -4.402785 14,125 316 211 -420
2019-01-14 20:52:40 GMT 54.015930 -4.384380 14,275 315 214 -120
2019-01-14 20:52:27 GMT 54.007305 -4.369518 14,425 315 218 -780
2019-01-14 20:52:16 GMT 53.999435 -4.356748 14,550 313 214 -480
2019-01-14 20:52:06 GMT 53.992577 -4.344535 14,700 315 209 -600
2019-01-14 20:51:56 GMT 53.985966 -4.332552 14,800 316 213 -840
2019-01-14 20:51:20 GMT 53.960358 -4.291575 15,225 313 219 -600
2019-01-14 20:51:10 GMT 53.953369 -4.279086 15,325 316 198 -360
2019-01-14 20:51:00 GMT 53.938435 -4.255970 15,475 316 234 -480
2019-01-14 20:50:50 GMT 53.938435 -4.255970 15,550 312 201 -540
2019-01-14 20:50:39 GMT 53.931622 -4.244013 15,700 318 228 -720
2019-01-14 20:50:28 GMT 53.923325 -4.230361 15,825 316 221 -480
2019-01-14 20:50:17 GMT 53.915092 -4.217281 15,950 315 204 -780
2019-01-14 20:50:06 GMT 53.907658 -4.204877 16,050 317 229 -1500
2019-01-14 20:49:55 GMT 53.899578 -4.192161 16,200 316 218 -600
2019-01-14 20:49:44 GMT 53.884136 -4.167924 16,350 317 216 -480
2019-01-14 20:49:34 GMT 53.884136 -4.167924 16,450 318 206 -720
2019-01-14 20:49:23 GMT 53.876507 -4.156275 16,550 315 215 -480
2019-01-14 20:49:13 GMT 53.869423 -4.144420 16,675 314 200 -480
2019-01-14 20:49:03 GMT 53.862339 -4.132666 16,800 311 207 -780
2019-01-14 20:48:52 GMT 53.855888 -4.119274 16,925 304 210 -480
2019-01-14 20:48:39 GMT 53.847103 -4.103293 17,075 293 193 -540
2019-01-14 20:48:28 GMT 53.835121 -4.072655 17,250 305 229 -840
2019-01-14 20:48:17 GMT 53.835121 -4.072655 17,375 295 195 -480
2019-01-14 20:48:07 GMT 53.829929 -4.061271 17,475 296 223 -360
2019-01-14 20:47:56 GMT 53.824841 -4.044063 17,600 305 211 -540
2019-01-14 20:47:42 GMT 53.817024 -4.025255 17,750 324 197 -420
2019-01-14 20:47:31 GMT 53.808353 -4.016290 17,925 287 265 -660
2019-01-14 20:47:20 GMT 53.804386 -3.994422 18,025 300 188 0
2019-01-14 20:47:09 GMT 53.798176 -3.979687 18,125 303 204 -480
2019-01-14 20:46:58 GMT 53.792156 -3.964926 18,275 304 215 -1080
2019-01-14 20:46:48 GMT 53.786533 -3.951023 18,400 303 230 -780
2019-01-14 20:46:37 GMT 53.779987 -3.934500 18,500 303 208 -720
2019-01-14 20:46:25 GMT 53.771980 -3.919448 18,650 294 217 -480
2019-01-14 20:46:15 GMT 53.767879 -3.903871 18,800 303 230 -1920
2019-01-14 20:46:05 GMT 53.762161 -3.894027 18,925 300 183 -1380
2019-01-14 20:45:55 GMT 53.756290 -3.883242 19,025 295 299 660
2019-01-14 20:45:42 GMT 53.748627 -3.855627 19,150 312 227 300
2019-01-14 20:45:32 GMT 53.742321 -3.846342 19,275 303 248 -960
2019-01-14 20:45:20 GMT 53.734547 -3.823168 19,400 303 270 -1140
2019-01-14 20:45:08 GMT 53.727001 -3.806495 19,575 303 237 -540
2019-01-14 20:44:56 GMT 53.719658 -3.787998 19,725 307 246 -720
2019-01-14 20:44:46 GMT 53.706829 -3.760458 19,825 291 205 -420
2019-01-14 20:44:36 GMT 53.706829 -3.760458 19,975 304 240 0
2019-01-14 20:44:25 GMT 53.699966 -3.743347 20,000 317 184 0
2019-01-14 20:44:14 GMT 53.691547 -3.727327 20,000 302 225 0
2019-01-14 20:44:03 GMT 53.684963 -3.710675 20,000 308 251 0
2019-01-14 20:43:53 GMT 53.679504 -3.695726 20,000 306 238 0
2019-01-14 20:43:42 GMT 53.672249 -3.679344 20,000 304 229 0
2019-01-14 20:43:31 GMT 53.665653 -3.663048 20,000 300 248 0
2019-01-14 20:43:20 GMT 53.650917 -3.630483 20,000 294 155 0
2019-01-14 20:42:53 GMT 53.643791 -3.603625 20,000 297 243 0
2019-01-14 20:42:43 GMT 53.638832 -3.586723 20,000 306 237 0
2019-01-14 20:42:33 GMT 53.633453 -3.570768 20,000 294 272 0
2019-01-14 20:42:23 GMT 53.628773 -3.559169 20,000 296 228 0
2019-01-14 20:42:12 GMT 53.617584 -3.518849 20,000 291 244 0
2019-01-14 20:42:01 GMT 53.617584 -3.518849 20,000 310 226 0
2019-01-14 20:41:51 GMT 53.607391 -3.490439 20,000 304 177 0
2019-01-14 20:41:41 GMT 53.607391 -3.490439 20,000 291 261 0
2019-01-14 20:41:30 GMT 53.602219 -3.473277 20,000 294 267 0
2019-01-14 20:41:19 GMT 53.596931 -3.452916 20,000 300 234 0
2019-01-14 20:41:09 GMT 53.591415 -3.437152 20,000 298 203 0
2019-01-14 20:40:59 GMT 53.586731 -3.420648 20,000 304 205 0
2019-01-14 20:40:49 GMT 53.581882 -3.408291 20,000 299 252 0
2019-01-14 20:40:38 GMT 53.575527 -3.389434 20,000 292 222 0
2019-01-14 20:40:28 GMT 53.571259 -3.372813 20,000 296 249 0
2019-01-14 20:40:18 GMT 53.566097 -3.359139 20,000 300 220 0
2019-01-14 20:40:08 GMT 53.560963 -3.344338 20,000 298 275 0
2019-01-14 20:39:57 GMT 53.550884 -3.308647 20,000 292 260 0
2019-01-14 20:39:46 GMT 53.550884 -3.308647 20,000 295 270 0
2019-01-14 20:39:34 GMT 53.544476 -3.285803 20,000 293 229 0
2019-01-14 20:39:24 GMT 53.533794 -3.251451 20,000 295 223 120
2019-01-14 20:39:12 GMT 53.533794 -3.251451 20,000 298 260 60
2019-01-14 20:39:02 GMT 53.528046 -3.233627 19,975 304 222 60
2019-01-14 20:38:51 GMT 53.521675 -3.217903 19,975 295 325 60
2019-01-14 20:38:41 GMT 53.509449 -3.175425 19,950 300 228 660
2019-01-14 20:38:30 GMT 53.509449 -3.175425 19,900 303 256 840
2019-01-14 20:38:20 GMT 53.503674 -3.160647 19,825 299 282 1020
2019-01-14 20:38:09 GMT 53.496586 -3.139094 19,600 288 349 840
2019-01-14 20:37:57 GMT 53.482410 -3.092523 19,350 303 228 1020
2019-01-14 20:37:43 GMT 53.482410 -3.092523 19,075 299 251 1200
2019-01-14 20:37:32 GMT 53.476143 -3.073762 18,900 297 273 660
2019-01-14 20:37:22 GMT 53.470249 -3.054912 18,675 294 312 1020
2019-01-14 20:37:11 GMT 53.464355 -3.032526 18,550 297 236 1860
2019-01-14 20:37:00 GMT 53.457767 -3.012556 18,250 297 201 1680
2019-01-14 20:36:50 GMT 53.452328 -2.995323 18,050 298 236 1020
2019-01-14 20:36:38 GMT 53.446045 -2.975924 17,875 297 258 1020
2019-01-14 20:36:28 GMT 53.440533 -2.958088 17,650 297 240 1740
2019-01-14 20:36:18 GMT 53.435360 -2.941715 17,350 298 256 1560
2019-01-14 20:36:08 GMT 53.429771 -2.924132 17,050 300 225 1680
2019-01-14 20:35:58 GMT 53.424576 -2.908232 16,750 298 237 2760
2019-01-14 20:35:46 GMT 53.418137 -2.888163 16,400 300 226 2520
2019-01-14 20:35:34 GMT 53.411896 -2.869023 16,150 297 243 2520
2019-01-14 20:35:23 GMT 53.405815 -2.852469 15,875 297 262 1500
2019-01-14 20:35:13 GMT 53.400032 -2.834306 15,475 295 230 1560
2019-01-14 20:35:03 GMT 53.395489 -2.818158 15,250 298 215 1200
2019-01-14 20:34:52 GMT 53.390301 -2.802000 15,100 300 220 3120
2019-01-14 20:34:41 GMT 53.384567 -2.785842 14,775 299 204 4200
2019-01-14 20:34:31 GMT 53.379608 -2.770432 14,350 298 215 1860
2019-01-14 20:34:20 GMT 53.374290 -2.754319 13,925 303 180 2520
2019-01-14 20:34:09 GMT 53.368996 -2.739174 13,400 294 236 2580
2019-01-14 20:33:59 GMT 53.364014 -2.723478 13,025 296 215 2640
2019-01-14 20:33:49 GMT 53.359589 -2.708481 12,625 301 185 4500
2019-01-14 20:33:39 GMT 53.355061 -2.696297 12,175 298 209 1980
2019-01-14 20:33:27 GMT 53.349400 -2.678282 11,700 297 225 2460
2019-01-14 20:33:17 GMT 53.344593 -2.662763 11,375 304 218 2820
2019-01-14 20:33:07 GMT 53.339638 -2.648914 10,800 299 189 2460
2019-01-14 20:32:57 GMT 53.335297 -2.637173 10,350 301 233 3120
2019-01-14 20:32:47 GMT 53.330170 -2.621273 9,900 303 211 2460
2019-01-14 20:32:37 GMT 53.324776 -2.607571 9,550 300 198 1740
2019-01-14 20:32:26 GMT 53.319641 -2.592967 9,075 299 204 4260
2019-01-14 20:32:15 GMT 53.315014 -2.578510 8,600 297 207 3780
2019-01-14 20:32:03 GMT 53.309837 -2.561369 8,075 289 203 2640
2019-01-14 20:31:52 GMT 53.307220 -2.545223 7,550 275 233 4560
2019-01-14 20:31:41 GMT 53.307091 -2.527428 6,975 252 223 3900
2019-01-14 20:31:31 GMT 53.313404 -2.497245 6,600 244 143 3780
2019-01-14 20:31:21 GMT 53.313404 -2.497245 6,225 251 194 2520
2019-01-14 20:31:09 GMT 53.317192 -2.478509 5,725 252 189

Making use of Plane Finder data

You are free to use the raw flight data, aircraft information and images provided in this report for your own purposes provided the data is correctly attributed to Plane Finder. We ask that you please credit Plane Finder and link to planefinder.net in close proximity to the content.

Optionally one of the following logos (no smaller then 150x24px) can be used and must link to planefinder.net

Embedding the Plane Finder map

You are welcome to embed the Plane Finder playback map on your website to offer visitors a more interactive experience. We suggest using the following HTML code:

<iframe src="//planefinder.net/data/report/BE486-G-PRPJ-7700-squawk-2019-01-14/map" width="800" height="600" seamless="seamless"></iframe>

Where our data comes from

Plane Finder has a global network of data feeds and antenna radars that receive data broadcast directly from aircraft. The primary technologies used are ADS-B and MLAT. We also show feeds from the FAA and a FLARM glider feed.

Click here to find out more about the Plane Finder network.

How we collect our data